Main page
METAR-TAF:

METAR-TAF

Airports :

Shanghai Pudong International Airport

Shanghai-Pudong, China

latitude: 31-07N, longitude: 121-46E, elevation: 4 m

Current weather observation

The report was made 24 minutes ago, at 10:33 UTC
Wind 12 kt from the North, varying between Northwest and North/Northeast
Temperature 32°C
Humidity 63%
Pressure 1006 hPa
Visibility 10 km or more
no clouds below 1500 m and no cumulonimbus

METAR: ZSPD 181033Z 01006MPS 310V030 CAVOK 32/24 Q1006 NOSIG

Time: 18:57 (10:57 UTC)

Forecast

The report was made 7 hours and 54 minutes ago, at 03:03 UTC
Forecast valid from 18 at 06 UTC to 19 at 12 UTC
Wind 8 kt from the South
Visibility: 8000 m
Scattered clouds at a height of 2000 ft
Temporary
from 18 at 06 UTC to 18 at 12 UTC
Broken clouds at a height of 900 ft
Scattered clouds at a height of 3000 ft, Cumulonimbus.
thunderstorm, rain,

TAF: ZSPD 180303Z 1806/1912 19004MPS 8000 SCT020 TX38/1806Z TX38/1906Z TN29/1821Z TEMPO 1806/1812 TSRA BKN009 SCT030CB

Weather observations and forecasts of more than 4000 airports (METAR and TAF reports).

The available stations are represented by yellow and red dots on the map.

Hover mouse over dot to see the name of the station.

Then click to see weather observations and forecasts.

To change the map : click on the green buttons with a black cross to zoom in, on the green button with a dash to zoom out, or on the green arrows for adjacent maps.


METAR-TAF: